sensor_id;sensor_type;location;lat;lon;timestamp;P1;durP1;ratioP1;P2;durP2;ratioP2
3841;SDS011;1936;47.074;15.336;2022-10-13T00:00:22;25.40;;;17.80;;
3841;SDS011;1936;47.074;15.336;2022-10-13T00:02:26;24.90;;;18.70;;
3841;SDS011;1936;47.074;15.336;2022-10-13T00:04:29;28.83;;;19.23;;
3841;SDS011;1936;47.074;15.336;2022-10-13T00:06:32;26.40;;;19.47;;
3841;SDS011;1936;47.074;15.336;2022-10-13T00:08:37;29.57;;;18.10;;
3841;SDS011;1936;47.074;15.336;2022-10-13T00:10:41;22.00;;;18.10;;
3841;SDS011;1936;47.074;15.336;2022-10-13T00:12:44;23.43;;;18.77;;
3841;SDS011;1936;47.074;15.336;2022-10-13T00:14:48;28.47;;;19.53;;
3841;SDS011;1936;47.074;15.336;2022-10-13T00:16:51;19.20;;;16.70;;
3841;SDS011;1936;47.074;15.336;2022-10-13T00:18:54;26.77;;;19.20;;
3841;SDS011;1936;47.074;15.336;2022-10-13T00:20:58;27.30;;;19.63;;
3841;SDS011;1936;47.074;15.336;2022-10-13T00:23:01;31.03;;;21.90;;
3841;SDS011;1936;47.074;15.336;2022-10-13T00:25:06;36.47;;;22.47;;
3841;SDS011;1936;47.074;15.336;2022-10-13T00:27:10;30.40;;;21.80;;
3841;SDS011;1936;47.074;15.336;2022-10-13T00:29:13;33.00;;;21.00;;
3841;SDS011;1936;47.074;15.336;2022-10-13T00:31:17;42.17;;;21.30;;
3841;SDS011;1936;47.074;15.336;2022-10-13T00:33:21;29.13;;;22.07;;
3841;SDS011;1936;47.074;15.336;2022-10-13T00:35:25;33.37;;;23.83;;
3841;SDS011;1936;47.074;15.336;2022-10-13T00:37:28;28.33;;;19.90;;
3841;SDS011;1936;47.074;15.336;2022-10-13T00:39:31;27.03;;;20.00;;
3841;SDS011;1936;47.074;15.336;2022-10-13T00:41:36;30.00;;;21.77;;
3841;SDS011;1936;47.074;15.336;2022-10-13T00:43:48;24.57;;;18.43;;
3841;SDS011;1936;47.074;15.336;2022-10-13T00:45:53;27.70;;;19.90;;
3841;SDS011;1936;47.074;15.336;2022-10-13T00:47:57;33.00;;;21.97;;
3841;SDS011;1936;47.074;15.336;2022-10-13T00:50:03;37.73;;;23.70;;
3841;SDS011;1936;47.074;15.336;2022-10-13T00:52:08;26.63;;;20.10;;
3841;SDS011;1936;47.074;15.336;2022-10-13T00:54:13;32.70;;;24.60;;
3841;SDS011;1936;47.074;15.336;2022-10-13T00:56:18;29.47;;;23.97;;
3841;SDS011;1936;47.074;15.336;2022-10-13T00:58:26;31.13;;;21.60;;
3841;SDS011;1936;47.074;15.336;2022-10-13T01:00:32;29.33;;;20.23;;
3841;SDS011;1936;47.074;15.336;2022-10-13T01:02:36;28.43;;;20.80;;
3841;SDS011;1936;47.074;15.336;2022-10-13T01:04:40;36.20;;;22.93;;
3841;SDS011;1936;47.074;15.336;2022-10-13T01:06:47;30.90;;;22.37;;
3841;SDS011;1936;47.074;15.336;2022-10-13T01:08:50;31.80;;;23.17;;
3841;SDS011;1936;47.074;15.336;2022-10-13T01:10:57;26.33;;;20.70;;
3841;SDS011;1936;47.074;15.336;2022-10-13T01:13:10;29.27;;;20.97;;
3841;SDS011;1936;47.074;15.336;2022-10-13T01:15:20;30.27;;;20.53;;
3841;SDS011;1936;47.074;15.336;2022-10-13T01:17:30;28.70;;;20.87;;
3841;SDS011;1936;47.074;15.336;2022-10-13T01:19:51;34.03;;;22.40;;
3841;SDS011;1936;47.074;15.336;2022-10-13T01:22:16;28.20;;;21.63;;
3841;SDS011;1936;47.074;15.336;2022-10-13T01:24:42;25.30;;;20.87;;
3841;SDS011;1936;47.074;15.336;2022-10-13T01:27:02;33.23;;;19.00;;
3841;SDS011;1936;47.074;15.336;2022-10-13T01:32:12;31.37;;;20.50;;
3841;SDS011;1936;47.074;15.336;2022-10-13T01:34:25;24.73;;;19.97;;
3841;SDS011;1936;47.074;15.336;2022-10-13T01:36:37;22.92;;;18.73;;
3841;SDS011;1936;47.074;15.336;2022-10-13T01:38:46;26.10;;;19.03;;
3841;SDS011;1936;47.074;15.336;2022-10-13T01:40:58;23.00;;;20.47;;
3841;SDS011;1936;47.074;15.336;2022-10-13T01:43:06;32.10;;;19.80;;
3841;SDS011;1936;47.074;15.336;2022-10-13T01:45:13;29.80;;;21.40;;
3841;SDS011;1936;47.074;15.336;2022-10-13T01:47:20;29.37;;;21.93;;
3841;SDS011;1936;47.074;15.336;2022-10-13T01:49:26;35.83;;;22.17;;
3841;SDS011;1936;47.074;15.336;2022-10-13T01:51:33;33.37;;;21.67;;
3841;SDS011;1936;47.074;15.336;2022-10-13T01:53:37;34.57;;;22.10;;
3841;SDS011;1936;47.074;15.336;2022-10-13T01:55:48;29.53;;;20.17;;
3841;SDS011;1936;47.074;15.336;2022-10-13T01:57:52;28.33;;;21.20;;
3841;SDS011;1936;47.074;15.336;2022-10-13T01:59:55;27.65;;;21.20;;
3841;SDS011;1936;47.074;15.336;2022-10-13T02:02:01;31.27;;;23.20;;
3841;SDS011;1936;47.074;15.336;2022-10-13T02:04:14;34.60;;;23.30;;
3841;SDS011;1936;47.074;15.336;2022-10-13T02:06:26;30.83;;;23.17;;
3841;SDS011;1936;47.074;15.336;2022-10-13T02:08:34;41.27;;;21.30;;
3841;SDS011;1936;47.074;15.336;2022-10-13T02:10:43;23.37;;;19.97;;
3841;SDS011;1936;47.074;15.336;2022-10-13T02:12:53;27.83;;;19.10;;
3841;SDS011;1936;47.074;15.336;2022-10-13T02:15:00;30.60;;;20.38;;
3841;SDS011;1936;47.074;15.336;2022-10-13T02:17:05;24.73;;;20.83;;
3841;SDS011;1936;47.074;15.336;2022-10-13T02:19:10;25.90;;;19.60;;
3841;SDS011;1936;47.074;15.336;2022-10-13T02:21:17;28.33;;;20.57;;
3841;SDS011;1936;47.074;15.336;2022-10-13T02:23:21;23.97;;;19.60;;
3841;SDS011;1936;47.074;15.336;2022-10-13T02:25:25;27.30;;;21.53;;
3841;SDS011;1936;47.074;15.336;2022-10-13T02:27:29;33.23;;;22.10;;
3841;SDS011;1936;47.074;15.336;2022-10-13T02:29:32;23.53;;;18.40;;
3841;SDS011;1936;47.074;15.336;2022-10-13T02:31:36;26.17;;;20.83;;
3841;SDS011;1936;47.074;15.336;2022-10-13T02:33:40;27.37;;;22.50;;
3841;SDS011;1936;47.074;15.336;2022-10-13T02:35:45;31.08;;;21.20;;
3841;SDS011;1936;47.074;15.336;2022-10-13T02:37:48;26.45;;;22.27;;
3841;SDS011;1936;47.074;15.336;2022-10-13T02:39:51;26.95;;;20.80;;
3841;SDS011;1936;47.074;15.336;2022-10-13T02:41:55;33.88;;;21.70;;
3841;SDS011;1936;47.074;15.336;2022-10-13T02:43:59;40.10;;;22.92;;
3841;SDS011;1936;47.074;15.336;2022-10-13T02:46:02;42.63;;;24.63;;
3841;SDS011;1936;47.074;15.336;2022-10-13T02:48:05;45.07;;;25.30;;
3841;SDS011;1936;47.074;15.336;2022-10-13T02:50:08;55.63;;;29.03;;
3841;SDS011;1936;47.074;15.336;2022-10-13T02:52:13;53.10;;;26.47;;
3841;SDS011;1936;47.074;15.336;2022-10-13T02:54:17;52.80;;;28.67;;
3841;SDS011;1936;47.074;15.336;2022-10-13T02:56:20;41.13;;;25.77;;
3841;SDS011;1936;47.074;15.336;2022-10-13T02:58:23;43.30;;;26.67;;
3841;SDS011;1936;47.074;15.336;2022-10-13T03:00:27;42.72;;;25.73;;
3841;SDS011;1936;47.074;15.336;2022-10-13T03:02:30;29.85;;;24.10;;
3841;SDS011;1936;47.074;15.336;2022-10-13T03:04:33;50.42;;;26.05;;
3841;SDS011;1936;47.074;15.336;2022-10-13T03:06:37;52.57;;;25.73;;
3841;SDS011;1936;47.074;15.336;2022-10-13T03:08:41;50.03;;;28.80;;
3841;SDS011;1936;47.074;15.336;2022-10-13T03:10:44;46.97;;;26.05;;
3841;SDS011;1936;47.074;15.336;2022-10-13T03:12:48;41.38;;;23.83;;
3841;SDS011;1936;47.074;15.336;2022-10-13T03:14:51;25.17;;;21.13;;
3841;SDS011;1936;47.074;15.336;2022-10-13T03:16:54;30.48;;;20.85;;
3841;SDS011;1936;47.074;15.336;2022-10-13T03:18:57;32.28;;;24.40;;
3841;SDS011;1936;47.074;15.336;2022-10-13T03:21:03;32.65;;;23.77;;
3841;SDS011;1936;47.074;15.336;2022-10-13T03:23:06;37.27;;;23.50;;
3841;SDS011;1936;47.074;15.336;2022-10-13T03:25:11;35.20;;;22.48;;
3841;SDS011;1936;47.074;15.336;2022-10-13T03:27:14;63.97;;;24.55;;
3841;SDS011;1936;47.074;15.336;2022-10-13T03:29:18;33.10;;;21.53;;
3841;SDS011;1936;47.074;15.336;2022-10-13T03:31:22;36.35;;;23.85;;
3841;SDS011;1936;47.074;15.336;2022-10-13T03:33:26;48.15;;;25.30;;
3841;SDS011;1936;47.074;15.336;2022-10-13T03:35:29;27.80;;;21.38;;
3841;SDS011;1936;47.074;15.336;2022-10-13T03:37:32;29.52;;;21.33;;
3841;SDS011;1936;47.074;15.336;2022-10-13T03:39:39;25.75;;;21.30;;
3841;SDS011;1936;47.074;15.336;2022-10-13T03:41:43;36.10;;;22.80;;
3841;SDS011;1936;47.074;15.336;2022-10-13T03:43:46;36.83;;;22.42;;
3841;SDS011;1936;47.074;15.336;2022-10-13T03:45:53;35.97;;;23.10;;
3841;SDS011;1936;47.074;15.336;2022-10-13T03:47:57;55.20;;;27.00;;
3841;SDS011;1936;47.074;15.336;2022-10-13T03:50:00;115.88;;;46.22;;
3841;SDS011;1936;47.074;15.336;2022-10-13T03:52:05;405.63;;;82.22;;
3841;SDS011;1936;47.074;15.336;2022-10-13T03:54:09;238.27;;;62.28;;
3841;SDS011;1936;47.074;15.336;2022-10-13T03:56:14;100.07;;;39.77;;
3841;SDS011;1936;47.074;15.336;2022-10-13T03:58:20;120.95;;;41.00;;
3841;SDS011;1936;47.074;15.336;2022-10-13T04:00:24;108.05;;;37.60;;
3841;SDS011;1936;47.074;15.336;2022-10-13T04:02:28;62.85;;;26.38;;
3841;SDS011;1936;47.074;15.336;2022-10-13T04:04:31;97.07;;;37.90;;
3841;SDS011;1936;47.074;15.336;2022-10-13T04:06:35;322.47;;;65.80;;
3841;SDS011;1936;47.074;15.336;2022-10-13T04:08:39;72.65;;;33.17;;
3841;SDS011;1936;47.074;15.336;2022-10-13T04:10:42;105.80;;;37.67;;
3841;SDS011;1936;47.074;15.336;2022-10-13T04:12:47;62.13;;;29.35;;
3841;SDS011;1936;47.074;15.336;2022-10-13T04:14:52;153.02;;;44.72;;
3841;SDS011;1936;47.074;15.336;2022-10-13T04:16:55;170.05;;;50.75;;
3841;SDS011;1936;47.074;15.336;2022-10-13T04:19:00;121.32;;;41.15;;
3841;SDS011;1936;47.074;15.336;2022-10-13T04:21:06;90.25;;;36.67;;
3841;SDS011;1936;47.074;15.336;2022-10-13T04:23:10;70.60;;;29.65;;
3841;SDS011;1936;47.074;15.336;2022-10-13T04:25:13;57.28;;;30.33;;
3841;SDS011;1936;47.074;15.336;2022-10-13T04:27:17;46.30;;;28.48;;
3841;SDS011;1936;47.074;15.336;2022-10-13T04:29:21;41.05;;;26.17;;
3841;SDS011;1936;47.074;15.336;2022-10-13T04:31:28;93.88;;;27.77;;
3841;SDS011;1936;47.074;15.336;2022-10-13T04:33:31;48.30;;;25.33;;
3841;SDS011;1936;47.074;15.336;2022-10-13T04:35:37;119.63;;;31.13;;
3841;SDS011;1936;47.074;15.336;2022-10-13T04:37:41;90.20;;;33.35;;
3841;SDS011;1936;47.074;15.336;2022-10-13T04:39:45;62.38;;;29.90;;
3841;SDS011;1936;47.074;15.336;2022-10-13T04:41:49;52.92;;;26.50;;
3841;SDS011;1936;47.074;15.336;2022-10-13T04:43:52;56.65;;;27.30;;
3841;SDS011;1936;47.074;15.336;2022-10-13T04:45:59;44.45;;;25.13;;
3841;SDS011;1936;47.074;15.336;2022-10-13T04:48:04;71.28;;;31.95;;
3841;SDS011;1936;47.074;15.336;2022-10-13T04:50:08;151.00;;;49.67;;
3841;SDS011;1936;47.074;15.336;2022-10-13T04:52:11;169.50;;;48.22;;
3841;SDS011;1936;47.074;15.336;2022-10-13T04:54:15;164.35;;;45.88;;
3841;SDS011;1936;47.074;15.336;2022-10-13T04:56:18;67.18;;;33.13;;
3841;SDS011;1936;47.074;15.336;2022-10-13T04:58:21;63.90;;;31.13;;
3841;SDS011;1936;47.074;15.336;2022-10-13T05:00:25;60.78;;;29.95;;
3841;SDS011;1936;47.074;15.336;2022-10-13T05:02:29;45.97;;;25.10;;
3841;SDS011;1936;47.074;15.336;2022-10-13T05:04:33;65.07;;;30.30;;
3841;SDS011;1936;47.074;15.336;2022-10-13T05:06:38;47.03;;;23.45;;
3841;SDS011;1936;47.074;15.336;2022-10-13T05:09:03;47.65;;;26.95;;
3841;SDS011;1936;47.074;15.336;2022-10-13T05:11:06;38.22;;;24.45;;
3841;SDS011;1936;47.074;15.336;2022-10-13T05:13:09;36.97;;;24.08;;
3841;SDS011;1936;47.074;15.336;2022-10-13T05:15:13;38.70;;;23.45;;
3841;SDS011;1936;47.074;15.336;2022-10-13T05:17:16;83.75;;;26.42;;
3841;SDS011;1936;47.074;15.336;2022-10-13T05:19:20;46.10;;;22.55;;
3841;SDS011;1936;47.074;15.336;2022-10-13T05:21:25;31.08;;;20.67;;
3841;SDS011;1936;47.074;15.336;2022-10-13T05:23:30;28.30;;;19.70;;
3841;SDS011;1936;47.074;15.336;2022-10-13T05:25:34;41.08;;;22.98;;
3841;SDS011;1936;47.074;15.336;2022-10-13T05:27:38;30.85;;;20.77;;
3841;SDS011;1936;47.074;15.336;2022-10-13T05:29:41;34.65;;;20.20;;
3841;SDS011;1936;47.074;15.336;2022-10-13T05:31:44;30.33;;;20.00;;
3841;SDS011;1936;47.074;15.336;2022-10-13T05:33:47;32.22;;;22.15;;
3841;SDS011;1936;47.074;15.336;2022-10-13T05:35:52;27.50;;;18.92;;
3841;SDS011;1936;47.074;15.336;2022-10-13T05:37:57;46.97;;;20.92;;
3841;SDS011;1936;47.074;15.336;2022-10-13T05:40:00;34.25;;;18.95;;
3841;SDS011;1936;47.074;15.336;2022-10-13T05:42:03;38.88;;;19.65;;
3841;SDS011;1936;47.074;15.336;2022-10-13T05:44:07;47.38;;;20.50;;
3841;SDS011;1936;47.074;15.336;2022-10-13T05:46:11;34.53;;;19.95;;
3841;SDS011;1936;47.074;15.336;2022-10-13T05:48:14;51.10;;;21.20;;
3841;SDS011;1936;47.074;15.336;2022-10-13T05:50:17;50.75;;;21.13;;
3841;SDS011;1936;47.074;15.336;2022-10-13T05:52:20;40.60;;;21.20;;
3841;SDS011;1936;47.074;15.336;2022-10-13T05:54:27;29.88;;;20.92;;
3841;SDS011;1936;47.074;15.336;2022-10-13T05:56:34;41.92;;;23.65;;
3841;SDS011;1936;47.074;15.336;2022-10-13T05:58:42;31.85;;;20.98;;
3841;SDS011;1936;47.074;15.336;2022-10-13T06:00:49;39.80;;;22.25;;
3841;SDS011;1936;47.074;15.336;2022-10-13T06:02:56;47.97;;;23.23;;
3841;SDS011;1936;47.074;15.336;2022-10-13T06:05:05;35.97;;;22.15;;
3841;SDS011;1936;47.074;15.336;2022-10-13T06:07:13;38.17;;;21.65;;
3841;SDS011;1936;47.074;15.336;2022-10-13T06:09:17;44.33;;;23.73;;
3841;SDS011;1936;47.074;15.336;2022-10-13T06:11:22;37.13;;;22.85;;
3841;SDS011;1936;47.074;15.336;2022-10-13T06:13:25;39.63;;;22.60;;
3841;SDS011;1936;47.074;15.336;2022-10-13T06:15:28;42.45;;;23.90;;
3841;SDS011;1936;47.074;15.336;2022-10-13T06:17:31;48.33;;;25.02;;
3841;SDS011;1936;47.074;15.336;2022-10-13T06:19:38;52.30;;;26.45;;
3841;SDS011;1936;47.074;15.336;2022-10-13T06:21:41;50.27;;;25.53;;
3841;SDS011;1936;47.074;15.336;2022-10-13T06:23:44;44.75;;;26.00;;
3841;SDS011;1936;47.074;15.336;2022-10-13T06:25:48;49.23;;;25.17;;
3841;SDS011;1936;47.074;15.336;2022-10-13T06:27:54;34.35;;;22.90;;
3841;SDS011;1936;47.074;15.336;2022-10-13T06:29:58;30.30;;;20.80;;
3841;SDS011;1936;47.074;15.336;2022-10-13T06:32:01;43.27;;;22.63;;
3841;SDS011;1936;47.074;15.336;2022-10-13T06:34:04;33.80;;;22.60;;
3841;SDS011;1936;47.074;15.336;2022-10-13T06:36:08;39.10;;;21.40;;
3841;SDS011;1936;47.074;15.336;2022-10-13T06:38:11;37.50;;;21.63;;
3841;SDS011;1936;47.074;15.336;2022-10-13T06:40:15;25.27;;;19.73;;
3841;SDS011;1936;47.074;15.336;2022-10-13T06:42:18;24.57;;;17.53;;
3841;SDS011;1936;47.074;15.336;2022-10-13T06:44:24;24.70;;;17.23;;
3841;SDS011;1936;47.074;15.336;2022-10-13T06:46:27;31.90;;;18.60;;
3841;SDS011;1936;47.074;15.336;2022-10-13T06:48:31;21.23;;;17.10;;
3841;SDS011;1936;47.074;15.336;2022-10-13T06:50:34;24.70;;;17.60;;
3841;SDS011;1936;47.074;15.336;2022-10-13T06:52:43;23.20;;;17.73;;
3841;SDS011;1936;47.074;15.336;2022-10-13T06:54:46;25.57;;;17.10;;
3841;SDS011;1936;47.074;15.336;2022-10-13T06:56:50;33.43;;;16.03;;
3841;SDS011;1936;47.074;15.336;2022-10-13T06:58:53;19.60;;;15.30;;
3841;SDS011;1936;47.074;15.336;2022-10-13T07:00:58;14.83;;;13.20;;
3841;SDS011;1936;47.074;15.336;2022-10-13T07:03:01;17.13;;;14.00;;
3841;SDS011;1936;47.074;15.336;2022-10-13T07:05:05;14.23;;;12.70;;
3841;SDS011;1936;47.074;15.336;2022-10-13T07:07:09;13.00;;;11.77;;
3841;SDS011;1936;47.074;15.336;2022-10-13T07:09:12;16.60;;;14.20;;
3841;SDS011;1936;47.074;15.336;2022-10-13T07:11:16;13.83;;;12.33;;
3841;SDS011;1936;47.074;15.336;2022-10-13T07:13:19;13.20;;;11.80;;
3841;SDS011;1936;47.074;15.336;2022-10-13T07:15:23;14.80;;;11.77;;
3841;SDS011;1936;47.074;15.336;2022-10-13T07:17:28;14.37;;;12.10;;
3841;SDS011;1936;47.074;15.336;2022-10-13T07:19:32;13.50;;;10.20;;
3841;SDS011;1936;47.074;15.336;2022-10-13T07:21:35;18.93;;;9.93;;
3841;SDS011;1936;47.074;15.336;2022-10-13T07:23:39;13.40;;;10.83;;
3841;SDS011;1936;47.074;15.336;2022-10-13T07:25:43;12.23;;;10.93;;
3841;SDS011;1936;47.074;15.336;2022-10-13T07:27:46;10.10;;;9.20;;
3841;SDS011;1936;47.074;15.336;2022-10-13T07:29:50;17.27;;;10.23;;
3841;SDS011;1936;47.074;15.336;2022-10-13T07:31:53;12.83;;;9.53;;
3841;SDS011;1936;47.074;15.336;2022-10-13T07:33:58;9.10;;;8.10;;
3841;SDS011;1936;47.074;15.336;2022-10-13T07:36:03;16.60;;;9.83;;
3841;SDS011;1936;47.074;15.336;2022-10-13T07:38:07;13.27;;;9.83;;
3841;SDS011;1936;47.074;15.336;2022-10-13T07:40:10;17.90;;;11.07;;
3841;SDS011;1936;47.074;15.336;2022-10-13T07:42:14;10.10;;;9.10;;
3841;SDS011;1936;47.074;15.336;2022-10-13T07:44:18;13.43;;;9.50;;
3841;SDS011;1936;47.074;15.336;2022-10-13T07:46:21;10.30;;;9.30;;
3841;SDS011;1936;47.074;15.336;2022-10-13T07:48:26;12.00;;;9.90;;
3841;SDS011;1936;47.074;15.336;2022-10-13T07:50:31;13.83;;;9.53;;
3841;SDS011;1936;47.074;15.336;2022-10-13T07:52:34;10.63;;;8.20;;
3841;SDS011;1936;47.074;15.336;2022-10-13T07:54:38;9.00;;;8.20;;
3841;SDS011;1936;47.074;15.336;2022-10-13T07:56:42;12.23;;;9.73;;
3841;SDS011;1936;47.074;15.336;2022-10-13T07:58:46;9.80;;;8.90;;
3841;SDS011;1936;47.074;15.336;2022-10-13T08:00:54;13.60;;;8.97;;
3841;SDS011;1936;47.074;15.336;2022-10-13T08:02:57;12.50;;;10.80;;
3841;SDS011;1936;47.074;15.336;2022-10-13T08:05:01;13.17;;;10.37;;
3841;SDS011;1936;47.074;15.336;2022-10-13T08:07:06;11.50;;;10.40;;
3841;SDS011;1936;47.074;15.336;2022-10-13T08:09:10;11.33;;;10.27;;
3841;SDS011;1936;47.074;15.336;2022-10-13T08:11:14;14.83;;;10.60;;
3841;SDS011;1936;47.074;15.336;2022-10-13T08:13:17;17.30;;;11.27;;
3841;SDS011;1936;47.074;15.336;2022-10-13T08:15:21;12.67;;;11.40;;
3841;SDS011;1936;47.074;15.336;2022-10-13T08:17:25;11.93;;;9.60;;
3841;SDS011;1936;47.074;15.336;2022-10-13T08:19:28;13.10;;;12.00;;
3841;SDS011;1936;47.074;15.336;2022-10-13T08:21:32;21.80;;;13.33;;
3841;SDS011;1936;47.074;15.336;2022-10-13T08:23:56;13.57;;;10.23;;
3841;SDS011;1936;47.074;15.336;2022-10-13T08:26:00;16.17;;;14.67;;
3841;SDS011;1936;47.074;15.336;2022-10-13T08:28:04;14.57;;;13.17;;
3841;SDS011;1936;47.074;15.336;2022-10-13T08:30:09;14.50;;;13.00;;
3841;SDS011;1936;47.074;15.336;2022-10-13T08:32:13;15.17;;;13.33;;
3841;SDS011;1936;47.074;15.336;2022-10-13T08:34:17;14.43;;;13.23;;
3841;SDS011;1936;47.074;15.336;2022-10-13T08:36:20;15.47;;;12.43;;
3841;SDS011;1936;47.074;15.336;2022-10-13T08:38:25;17.60;;;13.20;;
3841;SDS011;1936;47.074;15.336;2022-10-13T08:40:30;14.47;;;13.23;;
3841;SDS011;1936;47.074;15.336;2022-10-13T08:42:33;17.67;;;16.10;;
3841;SDS011;1936;47.074;15.336;2022-10-13T08:44:38;20.67;;;14.40;;
3841;SDS011;1936;47.074;15.336;2022-10-13T08:47:04;14.00;;;11.63;;
3841;SDS011;1936;47.074;15.336;2022-10-13T08:49:10;14.73;;;13.53;;
3841;SDS011;1936;47.074;15.336;2022-10-13T08:51:16;20.73;;;12.57;;
3841;SDS011;1936;47.074;15.336;2022-10-13T08:53:22;14.57;;;13.30;;
3841;SDS011;1936;47.074;15.336;2022-10-13T08:55:30;15.60;;;13.23;;
3841;SDS011;1936;47.074;15.336;2022-10-13T08:57:35;15.77;;;14.27;;
3841;SDS011;1936;47.074;15.336;2022-10-13T08:59:39;16.20;;;14.50;;
3841;SDS011;1936;47.074;15.336;2022-10-13T09:01:43;14.73;;;13.53;;
3841;SDS011;1936;47.074;15.336;2022-10-13T09:03:50;18.23;;;15.90;;
3841;SDS011;1936;47.074;15.336;2022-10-13T09:05:57;18.37;;;16.03;;
3841;SDS011;1936;47.074;15.336;2022-10-13T09:08:01;16.97;;;15.27;;
3841;SDS011;1936;47.074;15.336;2022-10-13T09:10:08;17.70;;;15.90;;
3841;SDS011;1936;47.074;15.336;2022-10-13T09:12:13;16.00;;;14.40;;
3841;SDS011;1936;47.074;15.336;2022-10-13T09:14:20;16.33;;;14.63;;
3841;SDS011;1936;47.074;15.336;2022-10-13T09:16:28;16.10;;;14.60;;
3841;SDS011;1936;47.074;15.336;2022-10-13T09:18:32;18.00;;;14.53;;
3841;SDS011;1936;47.074;15.336;2022-10-13T09:20:37;15.27;;;13.97;;
3841;SDS011;1936;47.074;15.336;2022-10-13T09:22:41;16.57;;;14.70;;
3841;SDS011;1936;47.074;15.336;2022-10-13T09:24:45;16.40;;;15.00;;
3841;SDS011;1936;47.074;15.336;2022-10-13T09:26:50;16.63;;;15.27;;
3841;SDS011;1936;47.074;15.336;2022-10-13T09:28:55;16.37;;;14.77;;
3841;SDS011;1936;47.074;15.336;2022-10-13T09:31:00;16.87;;;15.17;;
3841;SDS011;1936;47.074;15.336;2022-10-13T09:33:11;16.37;;;14.73;;
3841;SDS011;1936;47.074;15.336;2022-10-13T09:35:19;16.37;;;14.70;;
3841;SDS011;1936;47.074;15.336;2022-10-13T09:37:23;16.03;;;14.70;;
3841;SDS011;1936;47.074;15.336;2022-10-13T09:39:27;17.47;;;14.23;;
3841;SDS011;1936;47.074;15.336;2022-10-13T09:41:31;14.40;;;13.10;;
3841;SDS011;1936;47.074;15.336;2022-10-13T09:43:36;15.70;;;14.33;;
3841;SDS011;1936;47.074;15.336;2022-10-13T09:45:42;16.93;;;14.70;;
3841;SDS011;1936;47.074;15.336;2022-10-13T09:47:48;17.47;;;15.87;;
3841;SDS011;1936;47.074;15.336;2022-10-13T09:50:03;14.97;;;13.37;;
3841;SDS011;1936;47.074;15.336;2022-10-13T09:52:13;14.87;;;13.20;;
3841;SDS011;1936;47.074;15.336;2022-10-13T09:54:23;17.10;;;12.07;;
3841;SDS011;1936;47.074;15.336;2022-10-13T09:56:29;15.13;;;13.73;;
3841;SDS011;1936;47.074;15.336;2022-10-13T09:58:34;14.53;;;13.27;;
3841;SDS011;1936;47.074;15.336;2022-10-13T10:00:39;13.13;;;11.80;;
3841;SDS011;1936;47.074;15.336;2022-10-13T10:02:47;15.70;;;14.27;;
3841;SDS011;1936;47.074;15.336;2022-10-13T10:04:51;18.30;;;14.40;;
3841;SDS011;1936;47.074;15.336;2022-10-13T10:06:55;16.37;;;14.77;;
3841;SDS011;1936;47.074;15.336;2022-10-13T10:09:00;14.43;;;13.10;;
3841;SDS011;1936;47.074;15.336;2022-10-13T10:11:08;14.87;;;13.57;;
3841;SDS011;1936;47.074;15.336;2022-10-13T10:13:13;15.10;;;13.67;;
3841;SDS011;1936;47.074;15.336;2022-10-13T10:15:19;15.83;;;14.30;;
3841;SDS011;1936;47.074;15.336;2022-10-13T10:17:25;14.20;;;12.93;;
3841;SDS011;1936;47.074;15.336;2022-10-13T10:19:36;15.00;;;13.50;;
3841;SDS011;1936;47.074;15.336;2022-10-13T10:21:45;13.63;;;12.43;;
3841;SDS011;1936;47.074;15.336;2022-10-13T10:23:53;15.30;;;13.77;;
3841;SDS011;1936;47.074;15.336;2022-10-13T10:25:58;13.87;;;12.67;;
3841;SDS011;1936;47.074;15.336;2022-10-13T10:28:16;14.33;;;12.20;;
3841;SDS011;1936;47.074;15.336;2022-10-13T10:30:22;10.90;;;9.80;;
3841;SDS011;1936;47.074;15.336;2022-10-13T10:32:27;15.40;;;12.27;;
3841;SDS011;1936;47.074;15.336;2022-10-13T10:34:36;13.43;;;12.03;;
3841;SDS011;1936;47.074;15.336;2022-10-13T10:36:45;13.73;;;12.53;;
3841;SDS011;1936;47.074;15.336;2022-10-13T10:38:52;14.57;;;13.20;;
3841;SDS011;1936;47.074;15.336;2022-10-13T10:40:58;14.60;;;13.20;;
3841;SDS011;1936;47.074;15.336;2022-10-13T10:43:12;14.47;;;12.90;;
3841;SDS011;1936;47.074;15.336;2022-10-13T10:45:20;19.60;;;15.47;;
3841;SDS011;1936;47.074;15.336;2022-10-13T10:47:25;13.90;;;12.60;;
3841;SDS011;1936;47.074;15.336;2022-10-13T10:49:32;15.90;;;14.30;;
3841;SDS011;1936;47.074;15.336;2022-10-13T10:51:37;14.67;;;13.27;;
3841;SDS011;1936;47.074;15.336;2022-10-13T10:53:44;15.07;;;13.63;;
3841;SDS011;1936;47.074;15.336;2022-10-13T10:55:51;15.57;;;14.07;;
3841;SDS011;1936;47.074;15.336;2022-10-13T10:57:59;15.93;;;14.10;;
3841;SDS011;1936;47.074;15.336;2022-10-13T11:00:08;16.20;;;14.73;;
3841;SDS011;1936;47.074;15.336;2022-10-13T11:02:18;15.27;;;13.67;;
3841;SDS011;1936;47.074;15.336;2022-10-13T11:04:30;17.73;;;15.93;;
3841;SDS011;1936;47.074;15.336;2022-10-13T11:06:37;18.03;;;16.20;;
3841;SDS011;1936;47.074;15.336;2022-10-13T11:08:41;17.27;;;15.50;;
3841;SDS011;1936;47.074;15.336;2022-10-13T11:10:47;17.07;;;15.47;;
3841;SDS011;1936;47.074;15.336;2022-10-13T11:15:27;21.20;;;16.20;;
3841;SDS011;1936;47.074;15.336;2022-10-13T11:17:33;15.93;;;14.23;;
3841;SDS011;1936;47.074;15.336;2022-10-13T11:19:38;16.90;;;15.20;;
3841;SDS011;1936;47.074;15.336;2022-10-13T11:24:02;14.30;;;12.97;;
3841;SDS011;1936;47.074;15.336;2022-10-13T11:26:19;15.73;;;14.23;;
3841;SDS011;1936;47.074;15.336;2022-10-13T11:28:44;15.23;;;13.40;;
3841;SDS011;1936;47.074;15.336;2022-10-13T11:30:49;14.23;;;11.73;;
3841;SDS011;1936;47.074;15.336;2022-10-13T11:32:52;14.63;;;12.90;;
3841;SDS011;1936;47.074;15.336;2022-10-13T11:34:59;14.33;;;12.40;;
3841;SDS011;1936;47.074;15.336;2022-10-13T11:37:06;13.17;;;11.87;;
3841;SDS011;1936;47.074;15.336;2022-10-13T11:41:47;13.07;;;11.90;;
3841;SDS011;1936;47.074;15.336;2022-10-13T11:43:55;14.63;;;11.30;;
3841;SDS011;1936;47.074;15.336;2022-10-13T11:50:45;12.83;;;11.53;;
3841;SDS011;1936;47.074;15.336;2022-10-13T11:53:05;12.50;;;11.50;;
3841;SDS011;1936;47.074;15.336;2022-10-13T11:55:10;12.67;;;10.53;;
3841;SDS011;1936;47.074;15.336;2022-10-13T11:57:20;14.33;;;9.30;;
3841;SDS011;1936;47.074;15.336;2022-10-13T11:59:25;12.50;;;11.13;;
3841;SDS011;1936;47.074;15.336;2022-10-13T12:01:29;9.73;;;8.73;;
3841;SDS011;1936;47.074;15.336;2022-10-13T12:03:34;12.00;;;11.00;;
3841;SDS011;1936;47.074;15.336;2022-10-13T12:05:38;13.40;;;11.60;;
3841;SDS011;1936;47.074;15.336;2022-10-13T12:07:42;13.60;;;12.23;;
3841;SDS011;1936;47.074;15.336;2022-10-13T12:09:47;14.20;;;11.77;;
3841;SDS011;1936;47.074;15.336;2022-10-13T12:11:55;13.53;;;10.57;;
3841;SDS011;1936;47.074;15.336;2022-10-13T12:14:00;15.00;;;11.40;;
3841;SDS011;1936;47.074;15.336;2022-10-13T12:16:05;15.57;;;13.60;;
3841;SDS011;1936;47.074;15.336;2022-10-13T12:18:19;12.27;;;10.97;;
3841;SDS011;1936;47.074;15.336;2022-10-13T12:20:24;13.73;;;11.90;;
3841;SDS011;1936;47.074;15.336;2022-10-13T12:22:28;12.10;;;10.60;;
3841;SDS011;1936;47.074;15.336;2022-10-13T12:24:31;12.27;;;9.77;;
3841;SDS011;1936;47.074;15.336;2022-10-13T12:26:35;11.70;;;10.10;;
3841;SDS011;1936;47.074;15.336;2022-10-13T12:28:45;11.87;;;10.63;;
3841;SDS011;1936;47.074;15.336;2022-10-13T12:30:53;10.87;;;7.97;;
3841;SDS011;1936;47.074;15.336;2022-10-13T12:33:00;13.80;;;9.40;;
3841;SDS011;1936;47.074;15.336;2022-10-13T12:35:14;11.43;;;10.33;;
3841;SDS011;1936;47.074;15.336;2022-10-13T12:37:23;11.70;;;9.30;;
3841;SDS011;1936;47.074;15.336;2022-10-13T12:39:28;10.20;;;9.20;;
3841;SDS011;1936;47.074;15.336;2022-10-13T12:41:34;11.53;;;8.97;;